Seaspan Reliant — CFEB — position and weather

sailwx.info

Track history (hours):
 
Tides and Currents Weather Stations Pressure Air Temp Water Temp Dewpoint Dewpoint Depression Visibility Wind Speed Wind Dir Waves Ship Positions

Seaspan Reliant

Last reported at 2017-Nov-24 11:42 UTC. Time now 2017-Nov-24 16:49 UTC.
Position N 49°10' W 123°53'.

Length 150 m; draft 4 m.

Type: Ship. MMSI: 316033814.

Date/timePositionNaut miles runAvg speedWind from/ knotsBaromVisibWave heightAir tempDewpointWater temp
2017-Nov-24 11:42N 49°10' W 123°53'312.9
2017-Nov-24 11:27N 49°13' W 123°50'715.4
2017-Nov-24 11:00N 49°11' W 123°40'815.4
2017-Nov-24 10:30N 49°08' W 123°29'714.3
2017-Nov-24 10:00N 49°06' W 123°19'612.3
2017-Nov-24 09:30N 49°07' W 123°09'510.4
2017-Nov-24 09:00N 49°09' W 123°02'0 0.0
2017-Nov-24 08:30N 49°09' W 123°02'0 0.0
2017-Nov-24 08:00N 49°09' W 123°02'0 0.0
2017-Nov-24 07:30N 49°09' W 123°02'0 0.4
2017-Nov-24 07:00N 49°09' W 123°02'5 9.8
2017-Nov-24 06:30N 49°07' W 123°09'510.2
2017-Nov-24 06:00N 49°07' W 123°17'713.2
2017-Nov-24 05:30N 49°00' W 123°18'815.7
2017-Nov-24 05:00N 48°52' W 123°18'611.4
2017-Nov-24 04:30N 48°47' W 123°21'611.9
2017-Nov-24 04:01N 48°41' W 123°24'0 0.2
2017-Nov-24 03:30N 48°41' W 123°24'0 0.0
2017-Nov-24 03:00N 48°41' W 123°24'0 0.0
2017-Nov-24 02:30N 48°41' W 123°24'0 0.8
2017-Nov-24 02:00N 48°42' W 123°24'611.5
2017-Nov-24 01:30N 48°47' W 123°21'510.4
2017-Nov-24 01:00N 48°52' W 123°18'713.9
2017-Nov-24 00:30N 48°59' W 123°19'714.2
2017-Nov-24 00:00N 49°06' W 123°19'815.9
2017-Nov-23 23:30N 49°07' W 123°07'4 7.6
2017-Nov-23 23:00N 49°09' W 123°02'0 0.0
2017-Nov-23 22:30N 49°09' W 123°02'0 0.0
2017-Nov-23 22:00N 49°09' W 123°02'0 0.0
2017-Nov-23 21:30N 49°09' W 123°02'1 2.9
2017-Nov-23 21:00N 49°08' W 123°04'510.9
2017-Nov-23 20:30N 49°07' W 123°12'612.9
2017-Nov-23 20:00N 49°07' W 123°22'815.1
2017-Nov-23 19:30N 49°09' W 123°33'815.1
2017-Nov-23 19:00N 49°12' W 123°44'6 0.9
2017-Nov-23 11:47N 49°09' W 123°52'410.8
2017-Nov-23 11:27N 49°12' W 123°53'814.9
2017-Nov-23 10:56N 49°12' W 123°41'714.9
2017-Nov-23 10:30N 49°10' W 123°31'714.5
2017-Nov-23 10:00N 49°07' W 123°21'713.1
2017-Nov-23 09:30N 49°07' W 123°11'612.6
2017-Nov-23 09:01N 49°09' W 123°02'0 0.1
2017-Nov-23 08:30N 49°09' W 123°02'0 0.0
2017-Nov-23 08:00N 49°09' W 123°02'0 0.0
2017-Nov-23 07:31N 49°09' W 123°02'1 1.1
2017-Nov-23 07:00N 49°08' W 123°03'510.6
2017-Nov-23 06:30N 49°07' W 123°11'611.3
2017-Nov-23 06:01N 49°06' W 123°19'815.6
2017-Nov-23 05:30N 48°58' W 123°18'712.7
2017-Nov-23 04:59N 48°52' W 123°20'715.1
2017-Nov-23 04:30N 48°44' W 123°21'4 7.8
2017-Nov-23 04:00N 48°41' W 123°24'0 0.0
2017-Nov-23 03:30N 48°41' W 123°24'0 0.0
2017-Nov-23 02:58N 48°41' W 123°24'0 0.0
2017-Nov-23 02:26N 48°41' W 123°24'0 0.6
2017-Nov-23 01:56N 48°42' W 123°24'612.0
2017-Nov-23 01:28N 48°47' W 123°21'511.5
2017-Nov-23 01:00N 48°52' W 123°19'814.3
2017-Nov-23 00:26N 48°60' W 123°19'614.4
2017-Nov-23 00:00N 49°06' W 123°19'714.6
2017-Nov-22 23:30N 49°07' W 123°07'4 8.1
2017-Nov-22 23:01N 49°09' W 123°02'0 0.0
2017-Nov-22 22:30N 49°09' W 123°02'0 0.0
2017-Nov-22 22:01N 49°09' W 123°02'0 0.0
2017-Nov-22 21:30N 49°09' W 123°02'0 0.7
2017-Nov-22 21:01N 49°09' W 123°03'611.5
2017-Nov-22 20:30N 49°07' W 123°11'713.6
2017-Nov-22 20:00N 49°07' W 123°22'815.8
2017-Nov-22 19:30N 49°09' W 123°33'  
2017-Nov-20 00:30N 49°09' W 123°02'0 0.0
2017-Nov-20 00:00N 49°09' W 123°02'0 0.0
2017-Nov-19 23:30N 49°09' W 123°02'0 0.0
2017-Nov-19 23:00N 49°09' W 123°02'0 0.0
2017-Nov-19 22:30N 49°09' W 123°02'0 0.0
2017-Nov-19 22:00N 49°09' W 123°02'0 0.0
2017-Nov-19 21:30N 49°09' W 123°02'0 0.0
2017-Nov-19 21:00N 49°09' W 123°02'0 0.0
2017-Nov-19 20:30N 49°09' W 123°02'0 0.0
2017-Nov-19 20:00N 49°09' W 123°02'0 0.0
2017-Nov-19 19:30N 49°09' W 123°02'0 0.0
2017-Nov-19 19:00N 49°09' W 123°02'0 0.0
2017-Nov-19 18:30N 49°09' W 123°02'0 0.0
2017-Nov-19 18:00N 49°09' W 123°02'0 0.0
2017-Nov-19 17:30N 49°09' W 123°02'0 0.0
2017-Nov-19 17:00N 49°09' W 123°02'0 0.0
2017-Nov-19 16:30N 49°09' W 123°02'2 4.1
2017-Nov-19 16:00N 49°07' W 123°05'713.2
2017-Nov-19 15:30N 49°08' W 123°15'611.2
2017-Nov-19 14:59N 49°02' W 123°17'611.3
2017-Nov-19 14:26N 48°56' W 123°18'510.8
2017-Nov-19 14:00N 48°52' W 123°20'611.7
2017-Nov-19 13:30N 48°46' W 123°21'510.0
2017-Nov-19 13:00N 48°41' W 123°24'0 0.2
2017-Nov-19 12:22N 48°41' W 123°24'0 0.0
2017-Nov-19 11:46N 48°41' W 123°24'0 0.0
2017-Nov-19 11:25N 48°41' W 123°24'0 0.0
2017-Nov-19 11:00N 48°41' W 123°24'3 6.5
2017-Nov-19 10:30N 48°44' W 123°21'612.1
2017-Nov-19 10:00N 48°50' W 123°21'510.3
2017-Nov-19 09:30N 48°54' W 123°18'612.0
2017-Nov-19 09:00N 49°00' W 123°20'612.0
2017-Nov-19 08:29N 49°06' W 123°18'714.0
2017-Nov-19 08:00N 49°07' W 123°07'4 7.9
2017-Nov-19 07:31N 49°09' W 123°02'0 0.0
2017-Nov-19 07:00N 49°09' W 123°02'0 0.0
2017-Nov-19 06:30N 49°09' W 123°02'0 0.0
2017-Nov-19 06:01N 49°09' W 123°02'0 0.0
2017-Nov-19 05:30N 49°09' W 123°02'0 0.0
2017-Nov-19 05:01N 49°09' W 123°02'0 0.0
2017-Nov-19 04:30N 49°09' W 123°02'0 0.0
2017-Nov-19 04:00N 49°09' W 123°02'0 0.0
2017-Nov-19 03:30N 49°09' W 123°02'0 0.0
2017-Nov-19 03:00N 49°09' W 123°02'0 0.0
2017-Nov-19 02:30N 49°09' W 123°02'0 0.0
2017-Nov-19 02:01N 49°09' W 123°02'0 0.0
2017-Nov-19 01:30N 49°09' W 123°02'0 0.0
2017-Nov-19 01:00N 49°09' W 123°02'0 0.0
2017-Nov-19 00:30N 49°09' W 123°02'0 0.0
2017-Nov-19 00:00N 49°09' W 123°02'0 0.0
2017-Nov-18 23:31N 49°09' W 123°02'0 0.0
2017-Nov-18 23:00N 49°09' W 123°02'0 0.0
2017-Nov-18 22:30N 49°09' W 123°02'0 0.0
2017-Nov-18 22:00N 49°09' W 123°02'0 0.0
2017-Nov-18 21:31N 49°09' W 123°02'1 2.4
2017-Nov-18 21:00N 49°08' W 123°04'612.2
2017-Nov-18 20:31N 49°08' W 123°13'713.4
2017-Nov-18 20:00N 49°07' W 123°23'816.0
2017-Nov-18 19:30N 49°10' W 123°35'815.6
2017-Nov-18 19:01N 49°12' W 123°46'5 0.7
2017-Nov-18 11:32N 49°10' W 123°53'411.9
2017-Nov-18 11:10N 49°13' W 123°49'316.7
2017-Nov-18 10:59N 49°13' W 123°44'917.2
2017-Nov-18 10:28N 49°09' W 123°32'817.0
2017-Nov-18 10:00N 49°06' W 123°21'714.2
2017-Nov-18 09:30N 49°07' W 123°10'510.8
2017-Nov-18 09:00N 49°09' W 123°02'0 0.0
2017-Nov-18 08:30N 49°09' W 123°02'0 0.0
2017-Nov-18 08:00N 49°09' W 123°02'0 0.0
2017-Nov-18 07:30N 49°09' W 123°02'1 2.3
2017-Nov-18 07:00N 49°08' W 123°04'510.0
2017-Nov-18 06:30N 49°07' W 123°11'510.5
2017-Nov-18 06:00N 49°06' W 123°19'713.7
2017-Nov-18 05:30N 48°59' W 123°17'814.8
2017-Nov-18 04:59N 48°51' W 123°20'612.5
2017-Nov-18 04:29N 48°45' W 123°20'5 9.5
2017-Nov-18 03:59N 48°41' W 123°24'0 0.0
2017-Nov-18 03:30N 48°41' W 123°24'0 0.0
2017-Nov-18 03:00N 48°41' W 123°24'0 0.0
2017-Nov-18 02:31N 48°41' W 123°24'0 0.3
2017-Nov-18 01:49N 48°41' W 123°24'410.5
2017-Nov-18 01:28N 48°44' W 123°21'713.4
2017-Nov-18 00:59N 48°51' W 123°21'612.4
2017-Nov-18 00:30N 48°57' W 123°19'816.3
2017-Nov-18 00:00N 49°05' W 123°20'612.9
2017-Nov-17 23:30N 49°07' W 123°10'611.4
2017-Nov-17 23:00N 49°09' W 123°02'0 0.0
2017-Nov-17 22:30N 49°09' W 123°02'0 0.0
2017-Nov-17 22:00N 49°09' W 123°02'0 0.0
2017-Nov-17 21:30N 49°09' W 123°02'3 6.1
2017-Nov-17 21:00N 49°07' W 123°06'612.8
2017-Nov-17 20:30N 49°07' W 123°15'713.9
2017-Nov-17 20:00N 49°07' W 123°26'1116.4
2017-Nov-17 19:19N 49°11' W 123°42'7 1.0
2017-Nov-17 12:11N 49°09' W 123°52'2 6.2
2017-Nov-17 11:55N 49°10' W 123°53'711.8
2017-Nov-17 11:22N 49°12' W 123°43'616.2
2017-Nov-17 11:01N 49°10' W 123°35'815.9
2017-Nov-17 10:29N 49°07' W 123°23'612.5
2017-Nov-17 10:01N 49°08' W 123°15'713.2
2017-Nov-17 09:31N 49°07' W 123°04'2 4.1
2017-Nov-17 09:00N 49°09' W 123°02'0 0.0
2017-Nov-17 08:30N 49°09' W 123°02'0 0.0
2017-Nov-17 08:00N 49°09' W 123°02'0 0.0
2017-Nov-17 07:30N 49°09' W 123°02'1 2.7
2017-Nov-17 07:00N 49°08' W 123°04'510.9
2017-Nov-17 06:30N 49°07' W 123°12'510.9
2017-Nov-17 06:00N 49°05' W 123°20'816.4
2017-Nov-17 05:30N 48°57' W 123°17'713.5
2017-Nov-17 05:00N 48°51' W 123°21'915.3
2017-Nov-17 04:27N 48°42' W 123°21'2 5.4
2017-Nov-17 03:59N 48°41' W 123°24'0 0.0
2017-Nov-17 03:28N 48°41' W 123°24'0 0.0
2017-Nov-17 02:59N 48°41' W 123°24'0 0.0
2017-Nov-17 02:30N 48°41' W 123°24'3 6.0
2017-Nov-17 01:59N 48°43' W 123°21'816.8
2017-Nov-17 01:30N 48°51' W 123°21'713.3
2017-Nov-17 01:00N 48°58' W 123°19'815.2
2017-Nov-17 00:29N 49°06' W 123°20'613.2
2017-Nov-17 00:00N 49°07' W 123°10'511.0
2017-Nov-16 23:30N 49°09' W 123°02'0 0.1
2017-Nov-16 23:00N 49°09' W 123°02'0 0.0
2017-Nov-16 22:30N 49°09' W 123°02'0 0.0
2017-Nov-16 22:00N 49°09' W 123°02'0 0.8
2017-Nov-16 21:30N 49°09' W 123°03'612.4
2017-Nov-16 21:00N 49°07' W 123°12'713.6
2017-Nov-16 20:30N 49°06' W 123°22'714.4
2017-Nov-16 20:00N 49°09' W 123°32'1015.7
2017-Nov-16 19:21N 49°12' W 123°47'4 0.6
2017-Nov-16 12:19N 49°10' W 123°53'712.9
2017-Nov-16 11:47N 49°14' W 123°44'516.0
2017-Nov-16 11:29N 49°13' W 123°37'816.3
2017-Nov-16 11:00N 49°09' W 123°26'713.8
2017-Nov-16 10:30N 49°07' W 123°16'713.8
2017-Nov-16 10:00N 49°07' W 123°05'3 5.3
2017-Nov-16 09:30N 49°09' W 123°02'0 0.0
2017-Nov-16 09:00N 49°09' W 123°02'0 0.0
2017-Nov-16 08:30N 49°09' W 123°02'0 0.0
2017-Nov-16 08:00N 49°09' W 123°02'0 0.0
2017-Nov-16 07:30N 49°09' W 123°02'4 8.5
2017-Nov-16 06:59N 49°06' W 123°08'511.3
2017-Nov-16 06:31N 49°07' W 123°16'612.0
2017-Nov-16 06:00N 49°01' W 123°18'816.5
2017-Nov-16 05:30N 48°53' W 123°18'612.4
2017-Nov-16 05:01N 48°47' W 123°20'6 9.5
2017-Nov-16 04:21N 48°41' W 123°24'0 0.0
2017-Nov-16 03:53N 48°41' W 123°24'0 0.0
2017-Nov-16 03:22N 48°41' W 123°24'0 0.0
2017-Nov-16 02:57N 48°41' W 123°24'0 0.0
2017-Nov-16 02:29N 48°41' W 123°24'1 1.3
2017-Nov-16 02:00N 48°42' W 123°24'815.1
2017-Nov-16 01:27N 48°50' W 123°21'614.1
2017-Nov-16 01:00N 48°56' W 123°18'815.3
2017-Nov-16 00:30N 49°03' W 123°19'612.5
2017-Nov-16 00:01N 49°08' W 123°12'612.9
2017-Nov-15 23:30N 49°09' W 123°03'0 0.8
2017-Nov-15 23:00N 49°09' W 123°02'0 0.0
2017-Nov-15 22:30N 49°09' W 123°02'0 0.0
2017-Nov-15 21:58N 49°09' W 123°02'1 2.7
2017-Nov-15 21:30N 49°08' W 123°04'612.4
2017-Nov-15 21:00N 49°08' W 123°13'613.1
2017-Nov-15 20:30N 49°07' W 123°23'714.7
2017-Nov-15 20:00N 49°10' W 123°33'815.1
2017-Nov-15 19:29N 49°12' W 123°45'6 1.5
2017-Nov-15 15:39N 49°09' W 123°52'0 0.0
2017-Nov-15 12:25N 49°09' W 123°52'610.5
2017-Nov-15 11:52N 49°14' W 123°47'716.4
2017-Nov-15 11:27N 49°11' W 123°37'816.7
2017-Nov-15 11:00N 49°08' W 123°27'714.5
2017-Nov-15 10:31N 49°07' W 123°16'714.6
2017-Nov-15 10:00N 49°07' W 123°05'2 5.0
2017-Nov-15 09:30N 49°09' W 123°02'0 0.0
2017-Nov-15 09:00N 49°09' W 123°02'0 0.0
2017-Nov-15 08:30N 49°09' W 123°02'0 0.0
2017-Nov-15 08:00N 49°09' W 123°02'0 0.0
2017-Nov-15 07:30N 49°09' W 123°02'3 6.1
2017-Nov-15 07:00N 49°07' W 123°06'611.2
2017-Nov-15 06:30N 49°08' W 123°14'611.1
2017-Nov-15 06:00N 49°03' W 123°18'815.6
2017-Nov-15 05:30N 48°56' W 123°13'714.4
2017-Nov-15 05:00N 48°51' W 123°21'815.7
2017-Nov-15 04:30N 48°43' W 123°21'3 3.6
2017-Nov-15 03:44N 48°41' W 123°24'0 0.0
2017-Nov-15 03:25N 48°41' W 123°24'0 0.0
2017-Nov-15 02:58N 48°41' W 123°24'0 0.0
2017-Nov-15 02:23N 48°41' W 123°24'3 6.1
2017-Nov-15 01:59N 48°43' W 123°21'714.4
2017-Nov-15 01:30N 48°49' W 123°21'611.6
2017-Nov-15 00:59N 48°55' W 123°18'715.1
2017-Nov-15 00:30N 49°03' W 123°19'612.6
2017-Nov-15 00:00N 49°08' W 123°13'713.2
2017-Nov-14 23:29N 49°08' W 123°03'1 1.2
2017-Nov-14 23:00N 49°09' W 123°02'0 0.0
2017-Nov-14 22:30N 49°09' W 123°02'0 0.0
2017-Nov-14 22:00N 49°09' W 123°02'0 0.0
2017-Nov-14 21:29N 49°09' W 123°02'4 9.1
2017-Nov-14 21:00N 49°06' W 123°08'713.5
2017-Nov-14 20:31N 49°06' W 123°18'612.0
2017-Nov-14 20:00N 49°09' W 123°26'714.3
2017-Nov-14 19:30N 49°11' W 123°37'815.0
2017-Nov-14 19:00N 49°13' W 123°48'  
Track history (hours):
 
Tides and Currents Weather Stations Pressure Air Temp Water Temp Dewpoint Dewpoint Depression Visibility Wind Speed Wind Dir Waves Ship Positions

Seaspan Reliant

Last reported at 2017-Nov-24 11:42 UTC. Time now 2017-Nov-24 16:49 UTC.
Position N 49°10' W 123°53'.

Length 150 m; draft 4 m.

Type: Ship. MMSI: 316033814.

Date/timePositionNaut miles runAvg speedWind from/ knotsBaromVisibWave heightAir tempDewpointWater temp
2017-Nov-24 11:42N 49°10' W 123°53'312.9
2017-Nov-24 11:27N 49°13' W 123°50'715.4
2017-Nov-24 11:00N 49°11' W 123°40'815.4
2017-Nov-24 10:30N 49°08' W 123°29'714.3
2017-Nov-24 10:00N 49°06' W 123°19'612.3
2017-Nov-24 09:30N 49°07' W 123°09'510.4
2017-Nov-24 09:00N 49°09' W 123°02'0 0.0
2017-Nov-24 08:30N 49°09' W 123°02'0 0.0
2017-Nov-24 08:00N 49°09' W 123°02'0 0.0
2017-Nov-24 07:30N 49°09' W 123°02'0 0.4
2017-Nov-24 07:00N 49°09' W 123°02'5 9.8
2017-Nov-24 06:30N 49°07' W 123°09'510.2
2017-Nov-24 06:00N 49°07' W 123°17'713.2
2017-Nov-24 05:30N 49°00' W 123°18'815.7
2017-Nov-24 05:00N 48°52' W 123°18'611.4
2017-Nov-24 04:30N 48°47' W 123°21'611.9
2017-Nov-24 04:01N 48°41' W 123°24'0 0.2
2017-Nov-24 03:30N 48°41' W 123°24'0 0.0
2017-Nov-24 03:00N 48°41' W 123°24'0 0.0
2017-Nov-24 02:30N 48°41' W 123°24'0 0.8
2017-Nov-24 02:00N 48°42' W 123°24'611.5
2017-Nov-24 01:30N 48°47' W 123°21'510.4
2017-Nov-24 01:00N 48°52' W 123°18'713.9
2017-Nov-24 00:30N 48°59' W 123°19'714.2
2017-Nov-24 00:00N 49°06' W 123°19'815.9
2017-Nov-23 23:30N 49°07' W 123°07'4 7.6
2017-Nov-23 23:00N 49°09' W 123°02'0 0.0
2017-Nov-23 22:30N 49°09' W 123°02'0 0.0
2017-Nov-23 22:00N 49°09' W 123°02'0 0.0
2017-Nov-23 21:30N 49°09' W 123°02'1 2.9
2017-Nov-23 21:00N 49°08' W 123°04'510.9
2017-Nov-23 20:30N 49°07' W 123°12'612.9
2017-Nov-23 20:00N 49°07' W 123°22'815.1
2017-Nov-23 19:30N 49°09' W 123°33'815.1
2017-Nov-23 19:00N 49°12' W 123°44'6 0.9
2017-Nov-23 11:47N 49°09' W 123°52'410.8
2017-Nov-23 11:27N 49°12' W 123°53'814.9
2017-Nov-23 10:56N 49°12' W 123°41'714.9
2017-Nov-23 10:30N 49°10' W 123°31'714.5
2017-Nov-23 10:00N 49°07' W 123°21'713.1
2017-Nov-23 09:30N 49°07' W 123°11'612.6
2017-Nov-23 09:01N 49°09' W 123°02'0 0.1
2017-Nov-23 08:30N 49°09' W 123°02'0 0.0
2017-Nov-23 08:00N 49°09' W 123°02'0 0.0
2017-Nov-23 07:31N 49°09' W 123°02'1 1.1
2017-Nov-23 07:00N 49°08' W 123°03'510.6
2017-Nov-23 06:30N 49°07' W 123°11'611.3
2017-Nov-23 06:01N 49°06' W 123°19'815.6
2017-Nov-23 05:30N 48°58' W 123°18'712.7
2017-Nov-23 04:59N 48°52' W 123°20'715.1
2017-Nov-23 04:30N 48°44' W 123°21'4 7.8
2017-Nov-23 04:00N 48°41' W 123°24'0 0.0
2017-Nov-23 03:30N 48°41' W 123°24'0 0.0
2017-Nov-23 02:58N 48°41' W 123°24'0 0.0
2017-Nov-23 02:26N 48°41' W 123°24'0 0.6
2017-Nov-23 01:56N 48°42' W 123°24'612.0
2017-Nov-23 01:28N 48°47' W 123°21'511.5
2017-Nov-23 01:00N 48°52' W 123°19'814.3
2017-Nov-23 00:26N 48°60' W 123°19'614.4
2017-Nov-23 00:00N 49°06' W 123°19'714.6
2017-Nov-22 23:30N 49°07' W 123°07'4 8.1
2017-Nov-22 23:01N 49°09' W 123°02'0 0.0
2017-Nov-22 22:30N 49°09' W 123°02'0 0.0
2017-Nov-22 22:01N 49°09' W 123°02'0 0.0
2017-Nov-22 21:30N 49°09' W 123°02'0 0.7
2017-Nov-22 21:01N 49°09' W 123°03'611.5
2017-Nov-22 20:30N 49°07' W 123°11'713.6
2017-Nov-22 20:00N 49°07' W 123°22'815.8
2017-Nov-22 19:30N 49°09' W 123°33'  
2017-Nov-20 00:30N 49°09' W 123°02'0 0.0
2017-Nov-20 00:00N 49°09' W 123°02'0 0.0
2017-Nov-19 23:30N 49°09' W 123°02'0 0.0
2017-Nov-19 23:00N 49°09' W 123°02'0 0.0
2017-Nov-19 22:30N 49°09' W 123°02'0 0.0
2017-Nov-19 22:00N 49°09' W 123°02'0 0.0
2017-Nov-19 21:30N 49°09' W 123°02'0 0.0
2017-Nov-19 21:00N 49°09' W 123°02'0 0.0
2017-Nov-19 20:30N 49°09' W 123°02'0 0.0
2017-Nov-19 20:00N 49°09' W 123°02'0 0.0
2017-Nov-19 19:30N 49°09' W 123°02'0 0.0
2017-Nov-19 19:00N 49°09' W 123°02'0 0.0
2017-Nov-19 18:30N 49°09' W 123°02'0 0.0
2017-Nov-19 18:00N 49°09' W 123°02'0 0.0
2017-Nov-19 17:30N 49°09' W 123°02'0 0.0
2017-Nov-19 17:00N 49°09' W 123°02'0 0.0
2017-Nov-19 16:30N 49°09' W 123°02'2 4.1
2017-Nov-19 16:00N 49°07' W 123°05'713.2
2017-Nov-19 15:30N 49°08' W 123°15'611.2
2017-Nov-19 14:59N 49°02' W 123°17'611.3
2017-Nov-19 14:26N 48°56' W 123°18'510.8
2017-Nov-19 14:00N 48°52' W 123°20'611.7
2017-Nov-19 13:30N 48°46' W 123°21'510.0
2017-Nov-19 13:00N 48°41' W 123°24'0 0.2
2017-Nov-19 12:22N 48°41' W 123°24'0 0.0
2017-Nov-19 11:46N 48°41' W 123°24'0 0.0
2017-Nov-19 11:25N 48°41' W 123°24'0 0.0
2017-Nov-19 11:00N 48°41' W 123°24'3 6.5
2017-Nov-19 10:30N 48°44' W 123°21'612.1
2017-Nov-19 10:00N 48°50' W 123°21'510.3
2017-Nov-19 09:30N 48°54' W 123°18'612.0
2017-Nov-19 09:00N 49°00' W 123°20'612.0
2017-Nov-19 08:29N 49°06' W 123°18'714.0
2017-Nov-19 08:00N 49°07' W 123°07'4 7.9
2017-Nov-19 07:31N 49°09' W 123°02'0 0.0
2017-Nov-19 07:00N 49°09' W 123°02'0 0.0
2017-Nov-19 06:30N 49°09' W 123°02'0 0.0
2017-Nov-19 06:01N 49°09' W 123°02'0 0.0
2017-Nov-19 05:30N 49°09' W 123°02'0 0.0
2017-Nov-19 05:01N 49°09' W 123°02'0 0.0
2017-Nov-19 04:30N 49°09' W 123°02'0 0.0
2017-Nov-19 04:00N 49°09' W 123°02'0 0.0
2017-Nov-19 03:30N 49°09' W 123°02'0 0.0
2017-Nov-19 03:00N 49°09' W 123°02'0 0.0
2017-Nov-19 02:30N 49°09' W 123°02'0 0.0
2017-Nov-19 02:01N 49°09' W 123°02'0 0.0
2017-Nov-19 01:30N 49°09' W 123°02'0 0.0
2017-Nov-19 01:00N 49°09' W 123°02'0 0.0
2017-Nov-19 00:30N 49°09' W 123°02'0 0.0
2017-Nov-19 00:00N 49°09' W 123°02'0 0.0
2017-Nov-18 23:31N 49°09' W 123°02'0 0.0
2017-Nov-18 23:00N 49°09' W 123°02'0 0.0
2017-Nov-18 22:30N 49°09' W 123°02'0 0.0
2017-Nov-18 22:00N 49°09' W 123°02'0 0.0
2017-Nov-18 21:31N 49°09' W 123°02'1 2.4
2017-Nov-18 21:00N 49°08' W 123°04'612.2
2017-Nov-18 20:31N 49°08' W 123°13'713.4
2017-Nov-18 20:00N 49°07' W 123°23'816.0
2017-Nov-18 19:30N 49°10' W 123°35'815.6
2017-Nov-18 19:01N 49°12' W 123°46'5 0.7
2017-Nov-18 11:32N 49°10' W 123°53'411.9
2017-Nov-18 11:10N 49°13' W 123°49'316.7
2017-Nov-18 10:59N 49°13' W 123°44'917.2
2017-Nov-18 10:28N 49°09' W 123°32'817.0
2017-Nov-18 10:00N 49°06' W 123°21'714.2
2017-Nov-18 09:30N 49°07' W 123°10'510.8
2017-Nov-18 09:00N 49°09' W 123°02'0 0.0
2017-Nov-18 08:30N 49°09' W 123°02'0 0.0
2017-Nov-18 08:00N 49°09' W 123°02'0 0.0
2017-Nov-18 07:30N 49°09' W 123°02'1 2.3
2017-Nov-18 07:00N 49°08' W 123°04'510.0
2017-Nov-18 06:30N 49°07' W 123°11'510.5
2017-Nov-18 06:00N 49°06' W 123°19'713.7
2017-Nov-18 05:30N 48°59' W 123°17'814.8
2017-Nov-18 04:59N 48°51' W 123°20'612.5
2017-Nov-18 04:29N 48°45' W 123°20'5 9.5
2017-Nov-18 03:59N 48°41' W 123°24'0 0.0
2017-Nov-18 03:30N 48°41' W 123°24'0 0.0
2017-Nov-18 03:00N 48°41' W 123°24'0 0.0
2017-Nov-18 02:31N 48°41' W 123°24'0 0.3
2017-Nov-18 01:49N 48°41' W 123°24'410.5
2017-Nov-18 01:28N 48°44' W 123°21'713.4
2017-Nov-18 00:59N 48°51' W 123°21'612.4
2017-Nov-18 00:30N 48°57' W 123°19'816.3
2017-Nov-18 00:00N 49°05' W 123°20'612.9
2017-Nov-17 23:30N 49°07' W 123°10'611.4
2017-Nov-17 23:00N 49°09' W 123°02'0 0.0
2017-Nov-17 22:30N 49°09' W 123°02'0 0.0
2017-Nov-17 22:00N 49°09' W 123°02'0 0.0
2017-Nov-17 21:30N 49°09' W 123°02'3 6.1
2017-Nov-17 21:00N 49°07' W 123°06'612.8
2017-Nov-17 20:30N 49°07' W 123°15'713.9
2017-Nov-17 20:00N 49°07' W 123°26'1116.4
2017-Nov-17 19:19N 49°11' W 123°42'7 1.0
2017-Nov-17 12:11N 49°09' W 123°52'2 6.2
2017-Nov-17 11:55N 49°10' W 123°53'711.8
2017-Nov-17 11:22N 49°12' W 123°43'616.2
2017-Nov-17 11:01N 49°10' W 123°35'815.9
2017-Nov-17 10:29N 49°07' W 123°23'612.5
2017-Nov-17 10:01N 49°08' W 123°15'713.2
2017-Nov-17 09:31N 49°07' W 123°04'2 4.1
2017-Nov-17 09:00N 49°09' W 123°02'0 0.0
2017-Nov-17 08:30N 49°09' W 123°02'0 0.0
2017-Nov-17 08:00N 49°09' W 123°02'0 0.0
2017-Nov-17 07:30N 49°09' W 123°02'1 2.7
2017-Nov-17 07:00N 49°08' W 123°04'510.9
2017-Nov-17 06:30N 49°07' W 123°12'510.9
2017-Nov-17 06:00N 49°05' W 123°20'816.4
2017-Nov-17 05:30N 48°57' W 123°17'713.5
2017-Nov-17 05:00N 48°51' W 123°21'915.3
2017-Nov-17 04:27N 48°42' W 123°21'2 5.4
2017-Nov-17 03:59N 48°41' W 123°24'0 0.0
2017-Nov-17 03:28N 48°41' W 123°24'0 0.0
2017-Nov-17 02:59N 48°41' W 123°24'0 0.0
2017-Nov-17 02:30N 48°41' W 123°24'3 6.0
2017-Nov-17 01:59N 48°43' W 123°21'816.8
2017-Nov-17 01:30N 48°51' W 123°21'713.3
2017-Nov-17 01:00N 48°58' W 123°19'815.2
2017-Nov-17 00:29N 49°06' W 123°20'613.2
2017-Nov-17 00:00N 49°07' W 123°10'511.0
2017-Nov-16 23:30N 49°09' W 123°02'0 0.1
2017-Nov-16 23:00N 49°09' W 123°02'0 0.0
2017-Nov-16 22:30N 49°09' W 123°02'0 0.0
2017-Nov-16 22:00N 49°09' W 123°02'0 0.8
2017-Nov-16 21:30N 49°09' W 123°03'612.4
2017-Nov-16 21:00N 49°07' W 123°12'713.6
2017-Nov-16 20:30N 49°06' W 123°22'714.4
2017-Nov-16 20:00N 49°09' W 123°32'1015.7
2017-Nov-16 19:21N 49°12' W 123°47'4 0.6
2017-Nov-16 12:19N 49°10' W 123°53'712.9
2017-Nov-16 11:47N 49°14' W 123°44'516.0
2017-Nov-16 11:29N 49°13' W 123°37'816.3
2017-Nov-16 11:00N 49°09' W 123°26'713.8
2017-Nov-16 10:30N 49°07' W 123°16'713.8
2017-Nov-16 10:00N 49°07' W 123°05'3 5.3
2017-Nov-16 09:30N 49°09' W 123°02'0 0.0
2017-Nov-16 09:00N 49°09' W 123°02'0 0.0
2017-Nov-16 08:30N 49°09' W 123°02'0 0.0
2017-Nov-16 08:00N 49°09' W 123°02'0 0.0
2017-Nov-16 07:30N 49°09' W 123°02'4 8.5
2017-Nov-16 06:59N 49°06' W 123°08'511.3
2017-Nov-16 06:31N 49°07' W 123°16'612.0
2017-Nov-16 06:00N 49°01' W 123°18'816.5
2017-Nov-16 05:30N 48°53' W 123°18'612.4
2017-Nov-16 05:01N 48°47' W 123°20'6 9.5
2017-Nov-16 04:21N 48°41' W 123°24'0 0.0
2017-Nov-16 03:53N 48°41' W 123°24'0 0.0
2017-Nov-16 03:22N 48°41' W 123°24'0 0.0
2017-Nov-16 02:57N 48°41' W 123°24'0 0.0
2017-Nov-16 02:29N 48°41' W 123°24'1 1.3
2017-Nov-16 02:00N 48°42' W 123°24'815.1
2017-Nov-16 01:27N 48°50' W 123°21'614.1
2017-Nov-16 01:00N 48°56' W 123°18'815.3
2017-Nov-16 00:30N 49°03' W 123°19'612.5
2017-Nov-16 00:01N 49°08' W 123°12'612.9
2017-Nov-15 23:30N 49°09' W 123°03'0 0.8
2017-Nov-15 23:00N 49°09' W 123°02'0 0.0
2017-Nov-15 22:30N 49°09' W 123°02'0 0.0
2017-Nov-15 21:58N 49°09' W 123°02'1 2.7
2017-Nov-15 21:30N 49°08' W 123°04'612.4
2017-Nov-15 21:00N 49°08' W 123°13'613.1
2017-Nov-15 20:30N 49°07' W 123°23'714.7
2017-Nov-15 20:00N 49°10' W 123°33'815.1
2017-Nov-15 19:29N 49°12' W 123°45'6 1.5
2017-Nov-15 15:39N 49°09' W 123°52'0 0.0
2017-Nov-15 12:25N 49°09' W 123°52'610.5
2017-Nov-15 11:52N 49°14' W 123°47'716.4
2017-Nov-15 11:27N 49°11' W 123°37'816.7
2017-Nov-15 11:00N 49°08' W 123°27'714.5
2017-Nov-15 10:31N 49°07' W 123°16'714.6
2017-Nov-15 10:00N 49°07' W 123°05'2 5.0
2017-Nov-15 09:30N 49°09' W 123°02'0 0.0
2017-Nov-15 09:00N 49°09' W 123°02'0 0.0
2017-Nov-15 08:30N 49°09' W 123°02'0 0.0
2017-Nov-15 08:00N 49°09' W 123°02'0 0.0
2017-Nov-15 07:30N 49°09' W 123°02'3 6.1
2017-Nov-15 07:00N 49°07' W 123°06'611.2
2017-Nov-15 06:30N 49°08' W 123°14'611.1
2017-Nov-15 06:00N 49°03' W 123°18'815.6
2017-Nov-15 05:30N 48°56' W 123°13'714.4
2017-Nov-15 05:00N 48°51' W 123°21'815.7
2017-Nov-15 04:30N 48°43' W 123°21'3 3.6
2017-Nov-15 03:44N 48°41' W 123°24'0 0.0
2017-Nov-15 03:25N 48°41' W 123°24'0 0.0
2017-Nov-15 02:58N 48°41' W 123°24'0 0.0
2017-Nov-15 02:23N 48°41' W 123°24'3 6.1
2017-Nov-15 01:59N 48°43' W 123°21'714.4
2017-Nov-15 01:30N 48°49' W 123°21'611.6
2017-Nov-15 00:59N 48°55' W 123°18'715.1
2017-Nov-15 00:30N 49°03' W 123°19'612.6
2017-Nov-15 00:00N 49°08' W 123°13'713.2
2017-Nov-14 23:29N 49°08' W 123°03'1 1.2
2017-Nov-14 23:00N 49°09' W 123°02'0 0.0
2017-Nov-14 22:30N 49°09' W 123°02'0 0.0
2017-Nov-14 22:00N 49°09' W 123°02'0 0.0
2017-Nov-14 21:29N 49°09' W 123°02'4 9.1
2017-Nov-14 21:00N 49°06' W 123°08'713.5
2017-Nov-14 20:31N 49°06' W 123°18'612.0
2017-Nov-14 20:00N 49°09' W 123°26'714.3
2017-Nov-14 19:30N 49°11' W 123°37'815.0
2017-Nov-14 19:00N 49°13' W 123°48'  

Dump ship's entire track history